sensor_id;sensor_type;location;lat;lon;timestamp;noise_LAeq;noise_LA_min;noise_LA_max;noise_LA01;noise_LA95
69615;Laerm;56821;52.486;4.680;2022-12-18T00:00:06;43.42;41.20;45.84;;
69615;Laerm;56821;52.486;4.680;2022-12-18T00:00:16;41.17;38.22;43.90;;
69615;Laerm;56821;52.486;4.680;2022-12-18T00:00:26;40.43;38.43;42.28;;
69615;Laerm;56821;52.486;4.680;2022-12-18T00:00:40;41.26;38.67;43.79;;
69615;Laerm;56821;52.486;4.680;2022-12-18T00:00:51;44.19;41.47;47.48;;
69615;Laerm;56821;52.486;4.680;2022-12-18T00:01:02;42.71;40.40;46.64;;
69615;Laerm;56821;52.486;4.680;2022-12-18T00:01:19;44.81;41.10;47.86;;
69615;Laerm;56821;52.486;4.680;2022-12-18T00:01:31;43.28;39.97;46.38;;
69615;Laerm;56821;52.486;4.680;2022-12-18T00:01:41;40.72;38.58;43.09;;
69615;Laerm;56821;52.486;4.680;2022-12-18T00:01:52;41.36;39.27;45.53;;
69615;Laerm;56821;52.486;4.680;2022-12-18T00:02:02;42.14;40.12;44.59;;
69615;Laerm;56821;52.486;4.680;2022-12-18T00:02:13;40.74;37.63;45.43;;
69615;Laerm;56821;52.486;4.680;2022-12-18T00:02:23;39.14;36.96;41.21;;
69615;Laerm;56821;52.486;4.680;2022-12-18T00:02:33;39.13;36.98;41.65;;
69615;Laerm;56821;52.486;4.680;2022-12-18T00:02:44;40.15;37.97;47.08;;
69615;Laerm;56821;52.486;4.680;2022-12-18T00:02:55;42.47;39.29;46.04;;
69615;Laerm;56821;52.486;4.680;2022-12-18T00:03:05;42.28;39.87;44.57;;
69615;Laerm;56821;52.486;4.680;2022-12-18T00:03:15;43.93;41.28;49.64;;
69615;Laerm;56821;52.486;4.680;2022-12-18T00:03:25;43.61;40.24;48.72;;
69615;Laerm;56821;52.486;4.680;2022-12-18T00:03:36;40.57;38.08;43.06;;
69615;Laerm;56821;52.486;4.680;2022-12-18T00:03:46;39.71;37.84;41.62;;
69615;Laerm;56821;52.486;4.680;2022-12-18T00:03:57;40.94;38.29;43.87;;
69615;Laerm;56821;52.486;4.680;2022-12-18T00:04:11;44.15;41.99;47.01;;
69615;Laerm;56821;52.486;4.680;2022-12-18T00:04:25;42.81;38.22;60.77;;
69615;Laerm;56821;52.486;4.680;2022-12-18T00:04:35;40.63;38.58;43.62;;
69615;Laerm;56821;52.486;4.680;2022-12-18T00:04:45;41.06;38.73;43.03;;
69615;Laerm;56821;52.486;4.680;2022-12-18T00:04:56;41.21;39.22;44.82;;
69615;Laerm;56821;52.486;4.680;2022-12-18T00:05:06;40.62;38.57;42.28;;
69615;Laerm;56821;52.486;4.680;2022-12-18T00:05:16;41.39;39.25;43.85;;
69615;Laerm;56821;52.486;4.680;2022-12-18T00:05:27;41.44;39.04;44.14;;
69615;Laerm;56821;52.486;4.680;2022-12-18T00:05:37;42.99;39.64;46.18;;
69615;Laerm;56821;52.486;4.680;2022-12-18T00:05:48;43.53;40.51;48.71;;
69615;Laerm;56821;52.486;4.680;2022-12-18T00:05:58;42.30;39.36;48.55;;
69615;Laerm;56821;52.486;4.680;2022-12-18T00:06:09;39.93;37.37;41.94;;
69615;Laerm;56821;52.486;4.680;2022-12-18T00:06:19;40.70;38.60;43.19;;
69615;Laerm;56821;52.486;4.680;2022-12-18T00:06:30;42.03;39.54;44.41;;
69615;Laerm;56821;52.486;4.680;2022-12-18T00:06:41;41.96;39.74;44.46;;
69615;Laerm;56821;52.486;4.680;2022-12-18T00:06:51;42.85;40.24;46.00;;
69615;Laerm;56821;52.486;4.680;2022-12-18T00:07:02;43.71;41.36;45.78;;
69615;Laerm;56821;52.486;4.680;2022-12-18T00:07:12;42.66;39.62;44.82;;
69615;Laerm;56821;52.486;4.680;2022-12-18T00:07:23;45.14;38.87;55.48;;
69615;Laerm;56821;52.486;4.680;2022-12-18T00:07:33;41.55;38.23;45.38;;
69615;Laerm;56821;52.486;4.680;2022-12-18T00:07:43;42.68;40.07;46.47;;
69615;Laerm;56821;52.486;4.680;2022-12-18T00:07:53;42.87;40.91;45.44;;
69615;Laerm;56821;52.486;4.680;2022-12-18T00:08:04;42.63;40.39;45.05;;
69615;Laerm;56821;52.486;4.680;2022-12-18T00:08:14;43.93;41.12;46.50;;
69615;Laerm;56821;52.486;4.680;2022-12-18T00:08:24;41.81;39.72;44.21;;
69615;Laerm;56821;52.486;4.680;2022-12-18T00:08:35;40.95;38.64;43.86;;
69615;Laerm;56821;52.486;4.680;2022-12-18T00:08:45;40.31;38.13;43.47;;
69615;Laerm;56821;52.486;4.680;2022-12-18T00:08:56;41.50;39.05;43.84;;
69615;Laerm;56821;52.486;4.680;2022-12-18T00:09:08;42.86;40.44;45.56;;
69615;Laerm;56821;52.486;4.680;2022-12-18T00:09:19;42.60;40.74;45.37;;
69615;Laerm;56821;52.486;4.680;2022-12-18T00:09:29;43.26;40.98;46.14;;
69615;Laerm;56821;52.486;4.680;2022-12-18T00:09:39;42.16;39.25;44.40;;
69615;Laerm;56821;52.486;4.680;2022-12-18T00:09:50;41.87;39.85;44.26;;
69615;Laerm;56821;52.486;4.680;2022-12-18T00:10:00;44.49;41.11;47.13;;
69615;Laerm;56821;52.486;4.680;2022-12-18T00:10:10;42.60;38.29;46.17;;
69615;Laerm;56821;52.486;4.680;2022-12-18T00:10:20;42.59;40.34;45.13;;
69615;Laerm;56821;52.486;4.680;2022-12-18T00:10:30;42.41;40.14;50.56;;
69615;Laerm;56821;52.486;4.680;2022-12-18T00:10:41;45.93;39.51;51.16;;
69615;Laerm;56821;52.486;4.680;2022-12-18T00:10:51;47.11;43.34;51.17;;
69615;Laerm;56821;52.486;4.680;2022-12-18T00:11:05;43.12;40.97;47.04;;
69615;Laerm;56821;52.486;4.680;2022-12-18T00:11:17;40.59;38.21;43.64;;
69615;Laerm;56821;52.486;4.680;2022-12-18T00:11:28;40.19;37.64;43.54;;
69615;Laerm;56821;52.486;4.680;2022-12-18T00:11:39;42.19;38.47;46.64;;
69615;Laerm;56821;52.486;4.680;2022-12-18T00:11:49;42.27;39.56;44.66;;
69615;Laerm;56821;52.486;4.680;2022-12-18T00:11:59;44.02;42.25;45.95;;
69615;Laerm;56821;52.486;4.680;2022-12-18T00:12:09;42.35;39.98;45.03;;
69615;Laerm;56821;52.486;4.680;2022-12-18T00:12:20;40.94;38.44;43.15;;
69615;Laerm;56821;52.486;4.680;2022-12-18T00:12:30;43.68;40.66;46.85;;
69615;Laerm;56821;52.486;4.680;2022-12-18T00:12:40;42.14;39.62;46.70;;
69615;Laerm;56821;52.486;4.680;2022-12-18T00:12:50;43.01;40.81;44.99;;
69615;Laerm;56821;52.486;4.680;2022-12-18T00:13:01;43.72;39.19;47.12;;
69615;Laerm;56821;52.486;4.680;2022-12-18T00:13:11;41.87;38.13;45.41;;
69615;Laerm;56821;52.486;4.680;2022-12-18T00:13:21;39.64;37.71;41.20;;
69615;Laerm;56821;52.486;4.680;2022-12-18T00:13:31;40.76;38.54;43.08;;
69615;Laerm;56821;52.486;4.680;2022-12-18T00:13:41;42.48;39.81;46.06;;
69615;Laerm;56821;52.486;4.680;2022-12-18T00:13:53;42.06;39.79;44.39;;
69615;Laerm;56821;52.486;4.680;2022-12-18T00:14:03;41.88;39.89;43.88;;
69615;Laerm;56821;52.486;4.680;2022-12-18T00:14:14;44.58;38.17;63.34;;
69615;Laerm;56821;52.486;4.680;2022-12-18T00:14:24;41.94;39.80;44.22;;
69615;Laerm;56821;52.486;4.680;2022-12-18T00:14:34;42.16;39.99;48.00;;
69615;Laerm;56821;52.486;4.680;2022-12-18T00:14:45;41.10;37.34;44.57;;
69615;Laerm;56821;52.486;4.680;2022-12-18T00:14:55;39.25;37.12;41.17;;
69615;Laerm;56821;52.486;4.680;2022-12-18T00:15:05;39.57;37.81;41.58;;
69615;Laerm;56821;52.486;4.680;2022-12-18T00:15:16;40.65;38.89;46.93;;
69615;Laerm;56821;52.486;4.680;2022-12-18T00:15:26;41.50;38.80;44.50;;
69615;Laerm;56821;52.486;4.680;2022-12-18T00:15:37;43.05;40.93;45.52;;
69615;Laerm;56821;52.486;4.680;2022-12-18T00:15:47;44.39;42.22;46.35;;
69615;Laerm;56821;52.486;4.680;2022-12-18T00:16:07;43.35;40.88;47.58;;
69615;Laerm;56821;52.486;4.680;2022-12-18T00:16:19;43.31;39.31;48.49;;
69615;Laerm;56821;52.486;4.680;2022-12-18T00:16:30;43.31;38.78;48.22;;
69615;Laerm;56821;52.486;4.680;2022-12-18T00:16:43;40.31;37.62;42.86;;
69615;Laerm;56821;52.486;4.680;2022-12-18T00:16:53;40.63;38.41;43.43;;
69615;Laerm;56821;52.486;4.680;2022-12-18T00:17:03;42.86;39.63;46.25;;
69615;Laerm;56821;52.486;4.680;2022-12-18T00:17:14;41.01;38.98;43.66;;
69615;Laerm;56821;52.486;4.680;2022-12-18T00:17:24;40.02;38.25;42.44;;
69615;Laerm;56821;52.486;4.680;2022-12-18T00:17:34;40.44;38.52;42.73;;
69615;Laerm;56821;52.486;4.680;2022-12-18T00:17:44;41.23;39.37;43.12;;
69615;Laerm;56821;52.486;4.680;2022-12-18T00:17:54;42.38;39.60;46.32;;
69615;Laerm;56821;52.486;4.680;2022-12-18T00:18:05;41.45;39.07;44.35;;
69615;Laerm;56821;52.486;4.680;2022-12-18T00:18:15;39.24;36.82;41.64;;
69615;Laerm;56821;52.486;4.680;2022-12-18T00:18:26;40.00;37.59;44.13;;
69615;Laerm;56821;52.486;4.680;2022-12-18T00:18:36;39.66;37.28;44.21;;
69615;Laerm;56821;52.486;4.680;2022-12-18T00:18:50;41.27;38.17;44.03;;
69615;Laerm;56821;52.486;4.680;2022-12-18T00:19:01;41.59;38.32;44.09;;
69615;Laerm;56821;52.486;4.680;2022-12-18T00:19:11;38.23;36.57;40.04;;
69615;Laerm;56821;52.486;4.680;2022-12-18T00:19:22;38.08;35.84;39.68;;
69615;Laerm;56821;52.486;4.680;2022-12-18T00:19:32;38.87;36.65;40.51;;
69615;Laerm;56821;52.486;4.680;2022-12-18T00:19:42;40.94;37.61;50.89;;
69615;Laerm;56821;52.486;4.680;2022-12-18T00:19:53;40.87;38.14;43.51;;
69615;Laerm;56821;52.486;4.680;2022-12-18T00:20:03;39.71;37.19;43.47;;
69615;Laerm;56821;52.486;4.680;2022-12-18T00:20:13;40.66;37.79;44.90;;
69615;Laerm;56821;52.486;4.680;2022-12-18T00:20:23;42.18;38.97;44.31;;
69615;Laerm;56821;52.486;4.680;2022-12-18T00:20:36;39.34;37.06;42.56;;
69615;Laerm;56821;52.486;4.680;2022-12-18T00:20:46;39.62;37.29;42.45;;
69615;Laerm;56821;52.486;4.680;2022-12-18T00:21:00;41.91;38.50;45.06;;
69615;Laerm;56821;52.486;4.680;2022-12-18T00:21:11;44.13;41.16;47.08;;
69615;Laerm;56821;52.486;4.680;2022-12-18T00:21:22;43.89;38.92;47.93;;
69615;Laerm;56821;52.486;4.680;2022-12-18T00:21:32;42.38;39.78;45.18;;
69615;Laerm;56821;52.486;4.680;2022-12-18T00:21:43;41.95;38.00;45.07;;
69615;Laerm;56821;52.486;4.680;2022-12-18T00:21:53;41.00;37.92;43.82;;
69615;Laerm;56821;52.486;4.680;2022-12-18T00:22:03;40.98;38.17;43.93;;
69615;Laerm;56821;52.486;4.680;2022-12-18T00:22:13;41.49;39.49;43.39;;
69615;Laerm;56821;52.486;4.680;2022-12-18T00:22:24;39.79;37.10;43.34;;
69615;Laerm;56821;52.486;4.680;2022-12-18T00:22:34;39.27;37.51;41.20;;
69615;Laerm;56821;52.486;4.680;2022-12-18T00:22:44;40.08;37.89;42.77;;
69615;Laerm;56821;52.486;4.680;2022-12-18T00:22:54;41.91;38.66;44.29;;
69615;Laerm;56821;52.486;4.680;2022-12-18T00:23:05;44.80;41.59;47.10;;
69615;Laerm;56821;52.486;4.680;2022-12-18T00:23:16;42.84;39.42;47.33;;
69615;Laerm;56821;52.486;4.680;2022-12-18T00:23:26;43.90;40.98;46.76;;
69615;Laerm;56821;52.486;4.680;2022-12-18T00:23:37;45.56;40.53;52.11;;
69615;Laerm;56821;52.486;4.680;2022-12-18T00:23:48;46.37;40.32;50.37;;
69615;Laerm;56821;52.486;4.680;2022-12-18T00:23:59;40.38;37.65;43.44;;
69615;Laerm;56821;52.486;4.680;2022-12-18T00:24:10;40.51;37.74;42.68;;
69615;Laerm;56821;52.486;4.680;2022-12-18T00:24:20;39.25;37.06;43.10;;
69615;Laerm;56821;52.486;4.680;2022-12-18T00:24:30;38.45;35.70;42.20;;
69615;Laerm;56821;52.486;4.680;2022-12-18T00:24:40;39.03;37.05;43.35;;
69615;Laerm;56821;52.486;4.680;2022-12-18T00:24:50;39.53;37.20;42.45;;
69615;Laerm;56821;52.486;4.680;2022-12-18T00:25:01;39.89;37.65;44.74;;
69615;Laerm;56821;52.486;4.680;2022-12-18T00:25:11;40.43;38.29;43.39;;
69615;Laerm;56821;52.486;4.680;2022-12-18T00:25:21;41.08;38.44;46.40;;
69615;Laerm;56821;52.486;4.680;2022-12-18T00:25:35;39.61;37.51;43.58;;
69615;Laerm;56821;52.486;4.680;2022-12-18T00:25:45;38.92;36.83;41.72;;
69615;Laerm;56821;52.486;4.680;2022-12-18T00:25:59;38.46;35.93;40.18;;
69615;Laerm;56821;52.486;4.680;2022-12-18T00:26:10;40.50;36.86;44.51;;
69615;Laerm;56821;52.486;4.680;2022-12-18T00:26:22;43.70;41.04;49.19;;
69615;Laerm;56821;52.486;4.680;2022-12-18T00:26:33;44.87;40.88;48.48;;
69615;Laerm;56821;52.486;4.680;2022-12-18T00:26:44;43.58;38.68;51.57;;
69615;Laerm;56821;52.486;4.680;2022-12-18T00:26:54;39.24;37.18;45.82;;
69615;Laerm;56821;52.486;4.680;2022-12-18T00:27:04;39.17;37.41;43.66;;
69615;Laerm;56821;52.486;4.680;2022-12-18T00:27:14;40.30;38.29;42.82;;
69615;Laerm;56821;52.486;4.680;2022-12-18T00:27:24;40.38;38.17;42.29;;
69615;Laerm;56821;52.486;4.680;2022-12-18T00:27:35;41.03;39.07;42.98;;
69615;Laerm;56821;52.486;4.680;2022-12-18T00:27:45;40.33;38.04;42.32;;
69615;Laerm;56821;52.486;4.680;2022-12-18T00:27:55;39.88;37.44;42.01;;
69615;Laerm;56821;52.486;4.680;2022-12-18T00:28:05;38.95;36.71;40.82;;
69615;Laerm;56821;52.486;4.680;2022-12-18T00:28:15;40.08;37.57;43.08;;
69615;Laerm;56821;52.486;4.680;2022-12-18T00:28:26;39.64;37.48;42.70;;
69615;Laerm;56821;52.486;4.680;2022-12-18T00:28:36;40.71;37.85;44.68;;
69615;Laerm;56821;52.486;4.680;2022-12-18T00:28:46;42.13;40.08;44.05;;
69615;Laerm;56821;52.486;4.680;2022-12-18T00:29:14;41.57;39.39;43.54;;
69615;Laerm;56821;52.486;4.680;2022-12-18T00:29:24;38.96;33.56;43.24;;
69615;Laerm;56821;52.486;4.680;2022-12-18T00:29:35;37.08;34.91;39.33;;
69615;Laerm;56821;52.486;4.680;2022-12-18T00:29:45;38.15;35.90;40.95;;
69615;Laerm;56821;52.486;4.680;2022-12-18T00:29:55;39.10;36.83;40.78;;
69615;Laerm;56821;52.486;4.680;2022-12-18T00:30:05;39.83;37.18;42.48;;
69615;Laerm;56821;52.486;4.680;2022-12-18T00:30:16;38.47;35.57;41.84;;
69615;Laerm;56821;52.486;4.680;2022-12-18T00:30:26;38.54;36.79;39.92;;
69615;Laerm;56821;52.486;4.680;2022-12-18T00:30:36;39.47;36.30;46.03;;
69615;Laerm;56821;52.486;4.680;2022-12-18T00:30:46;41.77;39.10;45.17;;
69615;Laerm;56821;52.486;4.680;2022-12-18T00:31:01;43.89;41.65;46.02;;
69615;Laerm;56821;52.486;4.680;2022-12-18T00:31:12;43.26;39.80;45.91;;
69615;Laerm;56821;52.486;4.680;2022-12-18T00:31:23;42.46;40.06;46.02;;
69615;Laerm;56821;52.486;4.680;2022-12-18T00:31:34;42.60;38.76;48.13;;
69615;Laerm;56821;52.486;4.680;2022-12-18T00:31:44;42.19;37.42;46.61;;
69615;Laerm;56821;52.486;4.680;2022-12-18T00:31:54;41.15;37.55;45.44;;
69615;Laerm;56821;52.486;4.680;2022-12-18T00:32:04;40.87;37.43;44.84;;
69615;Laerm;56821;52.486;4.680;2022-12-18T00:32:14;39.56;37.25;47.59;;
69615;Laerm;56821;52.486;4.680;2022-12-18T00:32:25;39.81;37.31;41.41;;
69615;Laerm;56821;52.486;4.680;2022-12-18T00:32:35;38.89;36.27;43.69;;
69615;Laerm;56821;52.486;4.680;2022-12-18T00:32:45;39.61;37.38;42.12;;
69615;Laerm;56821;52.486;4.680;2022-12-18T00:32:56;39.66;37.66;41.72;;
69615;Laerm;56821;52.486;4.680;2022-12-18T00:33:07;39.25;37.13;41.60;;
69615;Laerm;56821;52.486;4.680;2022-12-18T00:33:17;38.28;36.34;42.92;;
69615;Laerm;56821;52.486;4.680;2022-12-18T00:33:27;39.39;37.03;41.34;;
69615;Laerm;56821;52.486;4.680;2022-12-18T00:33:38;40.40;38.14;42.55;;
69615;Laerm;56821;52.486;4.680;2022-12-18T00:33:48;38.58;36.61;40.12;;
69615;Laerm;56821;52.486;4.680;2022-12-18T00:33:58;37.63;35.28;40.12;;
69615;Laerm;56821;52.486;4.680;2022-12-18T00:34:12;37.40;35.57;39.31;;
69615;Laerm;56821;52.486;4.680;2022-12-18T00:34:22;38.92;36.47;41.09;;
69615;Laerm;56821;52.486;4.680;2022-12-18T00:34:32;39.93;37.78;42.06;;
69615;Laerm;56821;52.486;4.680;2022-12-18T00:34:43;44.65;37.11;61.81;;
69615;Laerm;56821;52.486;4.680;2022-12-18T00:34:53;38.73;36.25;40.71;;
69615;Laerm;56821;52.486;4.680;2022-12-18T00:35:04;39.00;36.83;43.65;;
69615;Laerm;56821;52.486;4.680;2022-12-18T00:35:14;37.61;34.83;41.90;;
69615;Laerm;56821;52.486;4.680;2022-12-18T00:35:24;39.56;36.94;42.50;;
69615;Laerm;56821;52.486;4.680;2022-12-18T00:35:35;42.83;39.34;46.15;;
69615;Laerm;56821;52.486;4.680;2022-12-18T00:35:45;44.72;42.41;46.84;;
69615;Laerm;56821;52.486;4.680;2022-12-18T00:36:00;43.60;40.98;47.48;;
69615;Laerm;56821;52.486;4.680;2022-12-18T00:36:14;39.51;36.59;42.99;;
69615;Laerm;56821;52.486;4.680;2022-12-18T00:36:26;40.21;38.02;42.67;;
69615;Laerm;56821;52.486;4.680;2022-12-18T00:36:37;41.48;38.70;44.15;;
69615;Laerm;56821;52.486;4.680;2022-12-18T00:36:47;40.31;37.84;42.98;;
69615;Laerm;56821;52.486;4.680;2022-12-18T00:36:58;38.99;36.73;42.62;;
69615;Laerm;56821;52.486;4.680;2022-12-18T00:37:08;40.51;37.90;44.04;;
69615;Laerm;56821;52.486;4.680;2022-12-18T00:37:18;40.81;37.35;44.81;;
69615;Laerm;56821;52.486;4.680;2022-12-18T00:37:28;43.71;41.44;45.98;;
69615;Laerm;56821;52.486;4.680;2022-12-18T00:37:38;39.59;36.67;42.61;;
69615;Laerm;56821;52.486;4.680;2022-12-18T00:37:49;38.29;35.83;40.24;;
69615;Laerm;56821;52.486;4.680;2022-12-18T00:37:59;38.20;35.79;41.52;;
69615;Laerm;56821;52.486;4.680;2022-12-18T00:38:09;39.62;37.13;42.53;;
69615;Laerm;56821;52.486;4.680;2022-12-18T00:38:19;39.40;36.83;43.18;;
69615;Laerm;56821;52.486;4.680;2022-12-18T00:38:30;40.16;36.96;44.35;;
69615;Laerm;56821;52.486;4.680;2022-12-18T00:38:40;43.83;40.52;47.95;;
69615;Laerm;56821;52.486;4.680;2022-12-18T00:38:51;43.83;40.66;46.99;;
69615;Laerm;56821;52.486;4.680;2022-12-18T00:39:04;41.75;37.57;44.56;;
69615;Laerm;56821;52.486;4.680;2022-12-18T00:39:14;39.04;36.55;42.52;;
69615;Laerm;56821;52.486;4.680;2022-12-18T00:39:24;38.83;36.64;41.33;;
69615;Laerm;56821;52.486;4.680;2022-12-18T00:39:35;38.51;36.06;41.14;;
69615;Laerm;56821;52.486;4.680;2022-12-18T00:39:45;40.53;38.08;42.88;;
69615;Laerm;56821;52.486;4.680;2022-12-18T00:39:55;40.86;38.28;42.75;;
69615;Laerm;56821;52.486;4.680;2022-12-18T00:40:05;39.35;36.82;42.98;;
69615;Laerm;56821;52.486;4.680;2022-12-18T00:40:16;41.15;37.96;43.69;;
69615;Laerm;56821;52.486;4.680;2022-12-18T00:40:26;39.09;35.97;43.19;;
69615;Laerm;56821;52.486;4.680;2022-12-18T00:40:36;37.63;35.21;42.53;;
69615;Laerm;56821;52.486;4.680;2022-12-18T00:40:48;36.64;34.38;39.12;;
69615;Laerm;56821;52.486;4.680;2022-12-18T00:40:58;36.83;34.63;40.62;;
69615;Laerm;56821;52.486;4.680;2022-12-18T00:41:09;36.83;34.20;39.23;;
69615;Laerm;56821;52.486;4.680;2022-12-18T00:41:20;36.91;34.00;39.68;;
69615;Laerm;56821;52.486;4.680;2022-12-18T00:41:49;39.29;36.46;43.28;;
69615;Laerm;56821;52.486;4.680;2022-12-18T00:42:18;41.46;36.09;48.27;;
69615;Laerm;56821;52.486;4.680;2022-12-18T00:42:47;37.78;35.16;40.94;;
69615;Laerm;56821;52.486;4.680;2022-12-18T00:43:08;37.64;35.58;40.30;;
69615;Laerm;56821;52.486;4.680;2022-12-18T00:43:18;39.21;36.03;43.27;;
69615;Laerm;56821;52.486;4.680;2022-12-18T00:43:29;41.12;38.59;44.99;;
69615;Laerm;56821;52.486;4.680;2022-12-18T00:43:39;38.58;36.33;41.52;;
69615;Laerm;56821;52.486;4.680;2022-12-18T00:43:49;38.62;36.18;40.94;;
69615;Laerm;56821;52.486;4.680;2022-12-18T00:44:00;39.32;37.03;43.00;;
69615;Laerm;56821;52.486;4.680;2022-12-18T00:44:11;41.24;38.27;44.47;;
69615;Laerm;56821;52.486;4.680;2022-12-18T00:44:22;39.18;36.63;41.73;;
69615;Laerm;56821;52.486;4.680;2022-12-18T00:44:32;37.45;35.16;39.69;;
69615;Laerm;56821;52.486;4.680;2022-12-18T00:44:42;37.27;34.97;41.57;;
69615;Laerm;56821;52.486;4.680;2022-12-18T00:44:52;40.78;36.69;43.23;;
69615;Laerm;56821;52.486;4.680;2022-12-18T00:45:03;41.43;39.35;43.27;;
69615;Laerm;56821;52.486;4.680;2022-12-18T00:45:13;40.29;37.10;42.67;;
69615;Laerm;56821;52.486;4.680;2022-12-18T00:45:30;39.12;36.97;41.02;;
69615;Laerm;56821;52.486;4.680;2022-12-18T00:45:40;40.85;37.06;46.52;;
69615;Laerm;56821;52.486;4.680;2022-12-18T00:45:51;43.23;41.27;45.47;;
69615;Laerm;56821;52.486;4.680;2022-12-18T00:46:01;39.60;37.06;43.43;;
69615;Laerm;56821;52.486;4.680;2022-12-18T00:46:11;38.26;36.07;40.32;;
69615;Laerm;56821;52.486;4.680;2022-12-18T00:46:21;37.80;36.03;39.52;;
69615;Laerm;56821;52.486;4.680;2022-12-18T00:46:32;39.53;37.65;42.48;;
69615;Laerm;56821;52.486;4.680;2022-12-18T00:46:42;39.94;37.77;42.97;;
69615;Laerm;56821;52.486;4.680;2022-12-18T00:46:53;40.95;37.64;44.22;;
69615;Laerm;56821;52.486;4.680;2022-12-18T00:47:03;40.35;35.57;42.94;;
69615;Laerm;56821;52.486;4.680;2022-12-18T00:47:13;38.11;35.20;42.60;;
69615;Laerm;56821;52.486;4.680;2022-12-18T00:47:23;37.90;35.66;40.62;;
69615;Laerm;56821;52.486;4.680;2022-12-18T00:47:34;37.13;34.91;39.05;;
69615;Laerm;56821;52.486;4.680;2022-12-18T00:47:44;37.09;34.97;39.10;;
69615;Laerm;56821;52.486;4.680;2022-12-18T00:47:54;38.62;35.94;42.24;;
69615;Laerm;56821;52.486;4.680;2022-12-18T00:48:04;40.58;38.30;42.31;;
69615;Laerm;56821;52.486;4.680;2022-12-18T00:48:15;38.44;35.76;41.98;;
69615;Laerm;56821;52.486;4.680;2022-12-18T00:48:25;36.55;33.80;39.05;;
69615;Laerm;56821;52.486;4.680;2022-12-18T00:48:35;35.86;33.47;39.27;;
69615;Laerm;56821;52.486;4.680;2022-12-18T00:48:45;35.78;33.69;38.48;;
69615;Laerm;56821;52.486;4.680;2022-12-18T00:48:56;39.15;34.75;42.94;;
69615;Laerm;56821;52.486;4.680;2022-12-18T00:49:06;39.45;36.85;41.88;;
69615;Laerm;56821;52.486;4.680;2022-12-18T00:49:17;37.34;34.85;41.15;;
69615;Laerm;56821;52.486;4.680;2022-12-18T00:49:28;36.81;34.53;41.77;;
69615;Laerm;56821;52.486;4.680;2022-12-18T00:49:38;36.80;34.25;41.56;;
69615;Laerm;56821;52.486;4.680;2022-12-18T00:49:48;36.00;33.49;39.15;;
69615;Laerm;56821;52.486;4.680;2022-12-18T00:49:58;37.25;34.52;41.55;;
69615;Laerm;56821;52.486;4.680;2022-12-18T00:50:09;37.84;35.04;43.92;;
69615;Laerm;56821;52.486;4.680;2022-12-18T00:50:19;38.33;36.71;40.39;;
69615;Laerm;56821;52.486;4.680;2022-12-18T00:50:30;40.46;37.19;43.53;;
69615;Laerm;56821;52.486;4.680;2022-12-18T00:50:40;40.13;37.24;42.51;;
69615;Laerm;56821;52.486;4.680;2022-12-18T00:50:51;38.06;35.06;40.41;;
69615;Laerm;56821;52.486;4.680;2022-12-18T00:51:01;36.79;34.60;38.53;;
69615;Laerm;56821;52.486;4.680;2022-12-18T00:51:12;37.49;35.26;40.33;;
69615;Laerm;56821;52.486;4.680;2022-12-18T00:51:22;36.91;34.47;40.26;;
69615;Laerm;56821;52.486;4.680;2022-12-18T00:51:32;37.00;34.92;39.72;;
69615;Laerm;56821;52.486;4.680;2022-12-18T00:51:43;36.82;34.78;38.64;;
69615;Laerm;56821;52.486;4.680;2022-12-18T00:51:53;36.58;34.70;39.28;;
69615;Laerm;56821;52.486;4.680;2022-12-18T00:52:03;36.79;34.23;40.11;;
69615;Laerm;56821;52.486;4.680;2022-12-18T00:52:14;39.48;37.05;44.88;;
69615;Laerm;56821;52.486;4.680;2022-12-18T00:52:24;38.54;34.98;42.03;;
69615;Laerm;56821;52.486;4.680;2022-12-18T00:52:34;36.34;33.88;38.65;;
69615;Laerm;56821;52.486;4.680;2022-12-18T00:52:45;36.35;33.33;39.03;;
69615;Laerm;56821;52.486;4.680;2022-12-18T00:52:55;38.18;35.71;45.14;;
69615;Laerm;56821;52.486;4.680;2022-12-18T00:53:05;36.91;34.59;39.67;;
69615;Laerm;56821;52.486;4.680;2022-12-18T00:53:16;36.61;34.15;38.80;;
69615;Laerm;56821;52.486;4.680;2022-12-18T00:53:26;37.01;35.03;39.07;;
69615;Laerm;56821;52.486;4.680;2022-12-18T00:53:36;36.85;34.81;39.26;;
69615;Laerm;56821;52.486;4.680;2022-12-18T00:53:47;36.64;34.46;39.24;;
69615;Laerm;56821;52.486;4.680;2022-12-18T00:53:57;36.73;34.78;38.63;;
69615;Laerm;56821;52.486;4.680;2022-12-18T00:54:07;37.06;34.51;40.08;;
69615;Laerm;56821;52.486;4.680;2022-12-18T00:54:17;36.07;34.30;40.75;;
69615;Laerm;56821;52.486;4.680;2022-12-18T00:54:27;36.71;34.47;40.97;;
69615;Laerm;56821;52.486;4.680;2022-12-18T00:54:38;35.84;33.30;39.56;;
69615;Laerm;56821;52.486;4.680;2022-12-18T00:54:48;35.84;33.66;39.11;;
69615;Laerm;56821;52.486;4.680;2022-12-18T00:54:58;36.00;34.03;38.36;;
69615;Laerm;56821;52.486;4.680;2022-12-18T00:55:09;37.14;35.07;39.38;;
69615;Laerm;56821;52.486;4.680;2022-12-18T00:55:19;36.90;34.78;40.99;;
69615;Laerm;56821;52.486;4.680;2022-12-18T00:55:29;36.10;33.61;39.58;;
69615;Laerm;56821;52.486;4.680;2022-12-18T00:55:40;35.75;33.12;39.42;;
69615;Laerm;56821;52.486;4.680;2022-12-18T00:55:50;35.72;33.45;39.00;;
69615;Laerm;56821;52.486;4.680;2022-12-18T00:56:00;35.71;33.21;37.34;;
69615;Laerm;56821;52.486;4.680;2022-12-18T00:56:11;37.32;34.05;40.69;;
69615;Laerm;56821;52.486;4.680;2022-12-18T00:56:21;38.83;36.37;42.70;;
69615;Laerm;56821;52.486;4.680;2022-12-18T00:56:31;37.84;35.20;39.91;;
69615;Laerm;56821;52.486;4.680;2022-12-18T00:56:42;38.02;35.49;42.21;;
69615;Laerm;56821;52.486;4.680;2022-12-18T00:56:52;37.00;33.84;43.45;;
69615;Laerm;56821;52.486;4.680;2022-12-18T00:57:02;36.46;33.85;43.93;;
69615;Laerm;56821;52.486;4.680;2022-12-18T00:57:13;36.17;32.79;39.93;;
69615;Laerm;56821;52.486;4.680;2022-12-18T00:57:23;37.93;34.97;42.31;;
69615;Laerm;56821;52.486;4.680;2022-12-18T00:57:33;37.87;34.57;40.68;;
69615;Laerm;56821;52.486;4.680;2022-12-18T00:57:43;36.06;33.31;39.86;;
69615;Laerm;56821;52.486;4.680;2022-12-18T00:57:53;37.53;34.61;40.77;;
69615;Laerm;56821;52.486;4.680;2022-12-18T00:58:04;36.81;33.80;40.02;;
69615;Laerm;56821;52.486;4.680;2022-12-18T00:58:15;36.15;33.72;39.31;;
69615;Laerm;56821;52.486;4.680;2022-12-18T00:58:25;37.04;34.36;40.75;;
69615;Laerm;56821;52.486;4.680;2022-12-18T00:58:35;36.98;33.88;40.29;;
69615;Laerm;56821;52.486;4.680;2022-12-18T00:58:45;39.53;35.91;47.36;;
69615;Laerm;56821;52.486;4.680;2022-12-18T00:58:56;40.36;37.38;42.86;;
69615;Laerm;56821;52.486;4.680;2022-12-18T00:59:06;39.10;36.38;43.05;;
69615;Laerm;56821;52.486;4.680;2022-12-18T00:59:17;38.78;36.62;42.59;;
69615;Laerm;56821;52.486;4.680;2022-12-18T00:59:27;38.38;36.43;40.75;;
69615;Laerm;56821;52.486;4.680;2022-12-18T00:59:38;40.23;37.37;45.86;;
69615;Laerm;56821;52.486;4.680;2022-12-18T00:59:48;39.37;37.19;41.54;;
69615;Laerm;56821;52.486;4.680;2022-12-18T00:59:58;39.36;36.91;44.68;;
69615;Laerm;56821;52.486;4.680;2022-12-18T01:00:10;39.23;36.40;44.10;;
69615;Laerm;56821;52.486;4.680;2022-12-18T01:00:20;37.28;34.63;41.23;;
69615;Laerm;56821;52.486;4.680;2022-12-18T01:00:31;36.84;34.70;38.68;;
69615;Laerm;56821;52.486;4.680;2022-12-18T01:00:41;38.89;35.20;46.04;;
69615;Laerm;56821;52.486;4.680;2022-12-18T01:00:51;40.27;37.63;42.76;;